createdAt,value
2017-10-04T00:02:11.542Z,88.72
2017-10-04T00:04:40.884Z,88.64
2017-10-04T00:07:09.367Z,88.70
2017-10-04T00:09:37.837Z,88.48
2017-10-04T00:12:06.331Z,88.34
2017-10-04T00:14:34.802Z,88.14
2017-10-04T00:17:03.244Z,88.41
2017-10-04T00:19:32.473Z,88.22
2017-10-04T00:22:01.043Z,88.45
2017-10-04T00:24:30.277Z,88.25
2017-10-04T00:26:58.721Z,88.19
2017-10-04T00:29:28.054Z,88.03
2017-10-04T00:31:56.538Z,87.87
2017-10-04T00:34:24.995Z,87.85
2017-10-04T00:36:53.503Z,87.75
2017-10-04T00:39:21.982Z,87.51
2017-10-04T00:41:50.450Z,87.63
2017-10-04T00:44:18.894Z,87.64
2017-10-04T00:46:47.366Z,87.63
2017-10-04T00:49:15.816Z,87.59
2017-10-04T00:51:44.290Z,87.66
2017-10-04T00:54:12.777Z,87.84
2017-10-04T00:56:41.243Z,87.90
2017-10-04T00:59:09.691Z,87.82
2017-10-04T01:01:38.941Z,87.58
2017-10-04T01:04:07.385Z,87.65
2017-10-04T01:06:36.719Z,87.77
2017-10-04T01:09:05.162Z,87.46
2017-10-04T01:11:34.418Z,87.47
2017-10-04T01:14:02.887Z,87.35
2017-10-04T01:19:06.915Z,87.27
2017-10-04T01:21:35.357Z,87.30
2017-10-04T01:24:04.693Z,87.19
2017-10-04T01:26:33.129Z,87.41
2017-10-04T01:29:02.366Z,87.37
2017-10-04T01:31:30.806Z,87.33
2017-10-04T01:34:00.050Z,87.40
2017-10-04T01:36:28.494Z,87.46
2017-10-04T01:38:58.269Z,87.13
2017-10-04T01:41:26.708Z,87.33
2017-10-04T01:43:55.174Z,87.07
2017-10-04T01:46:24.385Z,87.11
2017-10-04T01:48:53.622Z,87.30
2017-10-04T01:51:22.095Z,87.72
2017-10-04T01:53:50.566Z,87.98
2017-10-04T01:56:19.014Z,88.49
2017-10-04T01:58:48.239Z,88.37
2017-10-04T02:01:16.742Z,88.44
2017-10-04T02:03:45.217Z,88.22
2017-10-04T02:06:13.666Z,88.05
2017-10-04T02:08:42.882Z,88.23
2017-10-04T02:11:11.350Z,87.98
2017-10-04T02:13:40.548Z,87.71
2017-10-04T02:16:09.776Z,87.46
2017-10-04T02:18:38.212Z,87.59
2017-10-04T02:21:08.187Z,87.76
2017-10-04T02:23:36.625Z,87.71
2017-10-04T02:26:05.849Z,87.64
2017-10-04T02:28:34.284Z,87.62
2017-10-04T02:31:02.750Z,87.58
2017-10-04T02:33:31.193Z,87.43
2017-10-04T02:35:59.648Z,87.24
2017-10-04T02:38:28.882Z,87.19
2017-10-04T02:40:57.360Z,87.09
2017-10-04T02:43:25.800Z,86.95
2017-10-04T02:45:55.032Z,86.98
2017-10-04T02:48:23.478Z,86.96
2017-10-04T02:50:52.739Z,87.09
2017-10-04T02:53:21.183Z,86.84
2017-10-04T02:55:49.623Z,86.74
2017-10-04T02:58:18.080Z,86.67
2017-10-04T03:00:46.516Z,86.79
2017-10-04T03:03:15.848Z,86.75
2017-10-04T03:05:44.285Z,86.79
2017-10-04T03:08:12.828Z,86.57
2017-10-04T03:10:41.268Z,86.67
2017-10-04T03:13:10.596Z,86.63
2017-10-04T03:15:39.030Z,86.56
2017-10-04T03:18:07.506Z,86.40
2017-10-04T03:20:37.457Z,86.37
2017-10-04T03:23:05.922Z,86.18
2017-10-04T03:25:35.135Z,86.35
2017-10-04T03:28:04.367Z,86.18
2017-10-04T03:30:32.849Z,86.31
2017-10-04T03:33:01.479Z,85.86
2017-10-04T03:35:30.692Z,85.96
2017-10-04T03:37:59.892Z,85.89
2017-10-04T03:40:29.237Z,85.84
2017-10-04T03:42:57.669Z,85.97
2017-10-04T03:45:26.898Z,85.92
2017-10-04T03:47:55.346Z,86.03
2017-10-04T03:50:24.688Z,85.81
2017-10-04T03:52:53.130Z,85.94
2017-10-04T03:55:22.474Z,85.82
2017-10-04T03:57:50.908Z,85.82
2017-10-04T04:00:20.155Z,85.90
2017-10-04T04:02:48.588Z,86.16
2017-10-04T04:05:17.133Z,86.20
2017-10-04T04:07:45.609Z,86.23
2017-10-04T04:10:14.085Z,86.24
2017-10-04T04:12:43.053Z,86.29
2017-10-04T04:15:11.534Z,86.29
2017-10-04T04:17:40.048Z,86.73
2017-10-04T04:20:08.484Z,86.40
2017-10-04T04:22:37.717Z,86.20
2017-10-04T04:25:06.200Z,86.08
2017-10-04T04:27:34.666Z,85.95
2017-10-04T04:30:03.100Z,86.08
2017-10-04T04:32:31.655Z,86.08
2017-10-04T04:35:00.124Z,86.00
2017-10-04T04:37:28.614Z,85.97
2017-10-04T04:39:57.061Z,86.01
2017-10-04T04:42:26.389Z,85.83
2017-10-04T04:44:54.833Z,85.83
2017-10-04T04:47:24.186Z,85.67
2017-10-04T04:49:52.620Z,85.79
2017-10-04T04:52:21.849Z,85.64
2017-10-04T04:54:50.290Z,85.53
2017-10-04T04:57:18.784Z,85.70
2017-10-04T04:59:47.998Z,85.56
2017-10-04T05:02:16.446Z,85.47
2017-10-04T05:04:44.919Z,85.54
2017-10-04T05:07:13.368Z,85.44
2017-10-04T05:09:41.844Z,85.59
2017-10-04T05:12:10.289Z,85.33
2017-10-04T05:14:39.525Z,85.18
2017-10-04T05:17:08.122Z,85.45
2017-10-04T05:19:36.594Z,85.06
2017-10-04T05:22:05.076Z,85.01
2017-10-04T05:24:33.569Z,85.13
2017-10-04T05:27:02.004Z,84.84
2017-10-04T05:29:31.352Z,84.87
2017-10-04T05:31:59.788Z,84.81
2017-10-04T05:34:29.153Z,85.02
2017-10-04T05:36:57.597Z,84.99
2017-10-04T05:39:26.069Z,84.84
2017-10-04T05:41:54.574Z,85.16
2017-10-04T05:44:23.020Z,84.96
2017-10-04T05:46:52.241Z,84.62
2017-10-04T05:49:20.685Z,84.22
2017-10-04T05:51:49.152Z,84.18
2017-10-04T05:54:17.589Z,83.95
2017-10-04T05:56:46.058Z,83.95
2017-10-04T05:59:14.494Z,83.86
2017-10-04T06:01:43.040Z,84.01
2017-10-04T06:04:11.531Z,83.93
2017-10-04T06:06:39.993Z,83.85
2017-10-04T06:09:08.491Z,83.69
2017-10-04T06:11:36.978Z,83.63
2017-10-04T06:14:05.456Z,83.75
2017-10-04T06:16:34.045Z,83.38
2017-10-04T06:19:02.522Z,83.24
2017-10-04T06:21:30.966Z,83.20
2017-10-04T06:24:00.300Z,82.98
2017-10-04T06:26:28.788Z,83.24
2017-10-04T06:28:57.244Z,83.15
2017-10-04T06:31:26.454Z,83.10
2017-10-04T06:33:54.920Z,83.10
2017-10-04T06:36:24.120Z,82.96
2017-10-04T06:38:53.354Z,82.70
2017-10-04T06:41:21.796Z,82.91
2017-10-04T06:43:51.021Z,83.01
2017-10-04T06:46:19.518Z,82.81
2017-10-04T06:48:48.101Z,82.85
2017-10-04T06:51:16.573Z,82.83
2017-10-04T06:53:45.040Z,82.60
2017-10-04T06:56:13.536Z,82.68
2017-10-04T06:58:42.013Z,82.15
2017-10-04T07:01:10.457Z,81.96
2017-10-04T07:03:39.674Z,81.65
2017-10-04T07:06:08.897Z,81.86
2017-10-04T07:08:37.336Z,81.95
2017-10-04T07:11:06.582Z,81.85
2017-10-04T07:13:35.012Z,81.51
2017-10-04T07:16:03.547Z,81.18
2017-10-04T07:18:31.983Z,81.53
2017-10-04T07:21:01.208Z,81.24
2017-10-04T07:23:29.714Z,81.24
2017-10-04T07:25:58.303Z,80.93
2017-10-04T07:28:26.737Z,80.53
2017-10-04T07:30:55.967Z,80.38
2017-10-04T07:33:24.414Z,80.25
2017-10-04T07:35:53.629Z,80.16
2017-10-04T07:38:22.128Z,80.04
2017-10-04T07:40:50.625Z,79.76
2017-10-04T07:43:19.088Z,79.85
2017-10-04T07:45:47.530Z,79.75
2017-10-04T07:48:15.996Z,79.40
2017-10-04T07:50:44.432Z,79.20
2017-10-04T07:53:12.926Z,79.08
2017-10-04T07:55:41.373Z,78.96
2017-10-04T07:58:10.599Z,79.06
2017-10-04T08:00:39.040Z,79.30
2017-10-04T08:03:07.507Z,79.03
2017-10-04T08:05:35.948Z,79.18
2017-10-04T08:08:04.438Z,79.12
2017-10-04T08:10:32.876Z,79.38
2017-10-04T08:13:02.319Z,79.27
2017-10-04T08:15:30.814Z,79.10
2017-10-04T08:17:59.278Z,79.23
2017-10-04T08:20:27.758Z,79.02
2017-10-04T08:22:56.200Z,79.16
2017-10-04T08:25:25.480Z,79.57
2017-10-04T08:27:53.928Z,79.24
2017-10-04T08:30:22.404Z,79.41
2017-10-04T08:32:50.888Z,79.43
2017-10-04T08:35:19.373Z,79.61
2017-10-04T08:37:48.578Z,79.76
2017-10-04T08:40:17.047Z,79.69
2017-10-04T08:42:45.494Z,79.72
2017-10-04T08:45:14.716Z,79.61
2017-10-04T08:47:57.053Z,79.72
2017-10-04T08:50:25.517Z,79.64
2017-10-04T08:52:54.006Z,79.57
2017-10-04T08:55:22.584Z,79.49
2017-10-04T08:57:51.019Z,79.27
2017-10-04T09:00:19.500Z,79.08
2017-10-04T09:02:47.950Z,78.88
2017-10-04T09:08:23.408Z,78.06
2017-10-04T09:10:51.995Z,77.93
2017-10-04T09:13:20.433Z,77.86
2017-10-04T09:15:49.764Z,78.00
2017-10-04T09:18:18.197Z,77.62
2017-10-04T09:20:46.738Z,77.74
2017-10-04T09:23:15.208Z,77.16
2017-10-04T09:25:43.637Z,76.83
2017-10-04T09:28:12.093Z,76.28
2017-10-04T09:30:40.528Z,75.72
2017-10-04T09:33:09.752Z,75.11
2017-10-04T09:35:38.188Z,74.62
2017-10-04T09:38:06.654Z,74.03
2017-10-04T09:40:35.102Z,73.87
2017-10-04T09:43:03.568Z,72.99
2017-10-04T09:45:32.005Z,73.24
2017-10-04T09:48:00.477Z,73.02
2017-10-04T09:50:29.034Z,72.92
2017-10-04T09:52:57.482Z,73.56
2017-10-04T09:55:26.714Z,73.36
2017-10-04T09:57:55.157Z,73.44
2017-10-04T10:00:24.396Z,74.15
2017-10-04T10:02:52.886Z,73.94
2017-10-04T10:05:21.437Z,73.47
2017-10-04T10:07:49.936Z,73.20
2017-10-04T10:10:18.393Z,72.81
2017-10-04T10:12:47.617Z,72.92
2017-10-04T10:15:16.072Z,72.93
2017-10-04T10:17:45.306Z,72.62
2017-10-04T10:20:14.300Z,72.90
2017-10-04T10:22:42.747Z,72.10
2017-10-04T10:25:11.972Z,71.25
2017-10-04T10:27:40.423Z,70.56
2017-10-04T10:30:09.763Z,70.62
2017-10-04T10:32:38.200Z,70.94
2017-10-04T10:35:07.439Z,71.32
2017-10-04T10:37:35.921Z,71.06
2017-10-04T10:40:04.402Z,70.70
2017-10-04T10:42:32.878Z,71.04
2017-10-04T10:45:01.322Z,70.89
2017-10-04T10:47:30.664Z,70.68
2017-10-04T10:49:59.125Z,70.70
2017-10-04T10:52:28.462Z,71.21
2017-10-04T10:54:56.944Z,70.94
2017-10-04T10:57:25.430Z,71.01
2017-10-04T10:59:53.872Z,70.67
2017-10-04T11:02:23.107Z,70.75
2017-10-04T11:04:51.540Z,71.13
2017-10-04T11:07:20.876Z,70.35
2017-10-04T11:09:49.314Z,70.71
2017-10-04T11:12:18.553Z,70.91
2017-10-04T11:14:46.994Z,71.01
2017-10-04T11:17:15.530Z,70.99
2017-10-04T11:19:43.977Z,70.18
2017-10-04T11:22:13.186Z,69.84
2017-10-04T11:24:41.654Z,70.21
2017-10-04T11:27:10.887Z,69.63
2017-10-04T11:29:39.362Z,69.72
2017-10-04T11:32:07.792Z,69.05
2017-10-04T11:34:36.249Z,68.81
2017-10-04T11:37:04.691Z,68.62
2017-10-04T11:39:33.157Z,68.53
2017-10-04T11:42:02.366Z,68.03
2017-10-04T11:44:31.601Z,68.38
2017-10-04T11:47:00.037Z,68.85
2017-10-04T11:49:29.256Z,69.24
2017-10-04T11:51:57.693Z,69.75
2017-10-04T11:54:26.232Z,69.64
2017-10-04T11:56:54.677Z,69.69
2017-10-04T11:59:23.872Z,69.94
2017-10-04T12:01:52.407Z,69.45
2017-10-04T12:04:20.849Z,69.34
2017-10-04T12:06:50.181Z,68.86
2017-10-04T12:09:18.608Z,68.57
2017-10-04T12:11:47.152Z,67.76
2017-10-04T12:14:15.598Z,68.74
2017-10-04T12:16:44.825Z,69.22
2017-10-04T12:19:13.316Z,69.30
2017-10-04T12:21:41.788Z,68.95
2017-10-04T12:24:10.224Z,68.71
2017-10-04T12:26:38.762Z,68.84
2017-10-04T12:29:07.238Z,68.92
2017-10-04T12:31:35.726Z,69.49
2017-10-04T12:34:04.152Z,69.97
2017-10-04T12:36:32.690Z,70.02
2017-10-04T12:39:01.171Z,69.50
2017-10-04T12:41:29.652Z,69.31
2017-10-04T12:43:58.122Z,69.37
2017-10-04T12:46:26.556Z,69.35
2017-10-04T12:48:55.012Z,69.07
2017-10-04T12:51:23.458Z,69.22
2017-10-04T12:53:51.953Z,69.23
2017-10-04T12:56:20.432Z,68.86
2017-10-04T12:58:48.892Z,69.24
2017-10-04T13:01:18.116Z,69.17
2017-10-04T13:03:46.573Z,69.14
2017-10-04T13:06:15.781Z,69.67
2017-10-04T13:08:44.240Z,69.42
2017-10-04T13:11:13.476Z,69.82
2017-10-04T13:13:41.967Z,70.08
2017-10-04T13:16:10.454Z,69.97
2017-10-04T13:18:39.331Z,70.16
2017-10-04T13:21:07.769Z,70.08
2017-10-04T13:23:36.292Z,70.04
2017-10-04T13:26:04.776Z,69.84
2017-10-04T13:28:33.221Z,69.87
2017-10-04T13:31:02.560Z,70.36
2017-10-04T13:33:30.996Z,70.53
2017-10-04T13:35:59.462Z,70.71
2017-10-04T13:38:27.905Z,70.76
2017-10-04T13:40:56.376Z,70.73
2017-10-04T13:43:24.812Z,70.80
2017-10-04T13:45:53.268Z,71.23
2017-10-04T13:48:21.709Z,71.41
2017-10-04T13:50:50.933Z,71.54
2017-10-04T13:53:19.385Z,71.37
2017-10-04T13:55:48.723Z,71.42
2017-10-04T13:58:17.163Z,71.28
2017-10-04T14:00:46.596Z,71.34
2017-10-04T14:03:15.036Z,71.50
2017-10-04T14:05:44.254Z,71.13
2017-10-04T14:08:13.488Z,70.68
2017-10-04T14:10:41.929Z,70.66
2017-10-04T14:13:11.163Z,70.87
2017-10-04T14:15:39.650Z,70.75
2017-10-04T14:18:08.118Z,70.32
2017-10-04T14:20:36.609Z,70.31
2017-10-04T14:23:05.077Z,70.07
2017-10-04T14:25:33.869Z,70.04
2017-10-04T14:28:02.363Z,69.96
2017-10-04T14:30:30.850Z,70.51
2017-10-04T14:32:59.421Z,70.40
2017-10-04T14:35:27.911Z,70.11
2017-10-04T14:37:56.406Z,70.51
2017-10-04T14:40:24.882Z,70.03
2017-10-04T14:42:53.326Z,70.38
2017-10-04T14:45:22.658Z,69.91
2017-10-04T14:47:51.100Z,70.37
2017-10-04T14:50:20.331Z,70.78
2017-10-04T14:52:48.827Z,70.81
2017-10-04T14:55:17.296Z,71.17
2017-10-04T14:57:45.732Z,71.58
2017-10-04T15:00:14.188Z,71.65
2017-10-04T15:02:42.646Z,71.72
2017-10-04T15:05:11.233Z,71.82
2017-10-04T15:07:39.678Z,72.02
2017-10-04T15:10:08.887Z,71.95
2017-10-04T15:12:37.393Z,71.62
2017-10-04T15:15:05.856Z,71.73
2017-10-04T15:17:34.363Z,71.82
2017-10-04T15:20:02.948Z,72.10
2017-10-04T15:22:31.394Z,71.92
2017-10-04T15:25:00.596Z,71.80
2017-10-04T15:27:29.930Z,71.92
2017-10-04T15:29:58.408Z,71.80
2017-10-04T15:32:26.881Z,71.86
2017-10-04T15:34:55.316Z,71.92
2017-10-04T15:37:23.787Z,72.23
2017-10-04T15:39:52.232Z,72.63
2017-10-04T15:42:20.704Z,71.87
2017-10-04T15:44:49.190Z,72.08
2017-10-04T15:47:17.658Z,72.03
2017-10-04T15:49:46.089Z,72.32
2017-10-04T15:52:14.545Z,72.54
2017-10-04T15:54:42.976Z,72.33
2017-10-04T15:57:12.226Z,72.62
2017-10-04T15:59:40.670Z,73.36
2017-10-04T16:02:09.892Z,73.39
2017-10-04T16:04:38.338Z,73.83
2017-10-04T16:07:07.569Z,74.22
2017-10-04T16:09:36.017Z,74.37
2017-10-04T16:12:05.248Z,74.48
2017-10-04T16:14:33.684Z,74.31
2017-10-04T16:17:02.166Z,74.20
2017-10-04T16:19:30.606Z,74.25
2017-10-04T16:21:59.032Z,74.25
2017-10-04T16:24:27.570Z,74.29
2017-10-04T16:26:56.016Z,74.51
2017-10-04T16:29:25.233Z,74.36
2017-10-04T16:31:53.664Z,74.43
2017-10-04T16:34:22.130Z,74.23
2017-10-04T16:36:50.614Z,74.10
2017-10-04T16:39:19.082Z,73.91
2017-10-04T16:41:47.536Z,73.95
2017-10-04T16:44:16.008Z,73.91
2017-10-04T16:46:45.245Z,73.63
2017-10-04T16:49:13.721Z,73.46
2017-10-04T16:51:42.158Z,73.53
2017-10-04T16:54:11.500Z,73.70
2017-10-04T16:56:39.945Z,73.22
2017-10-04T16:59:09.294Z,73.01
2017-10-04T17:01:37.745Z,72.76
2017-10-04T17:04:06.940Z,73.27
2017-10-04T17:06:36.178Z,73.00
2017-10-04T17:09:04.655Z,72.60
2017-10-04T17:11:33.126Z,72.78
2017-10-04T17:14:01.620Z,72.65
2017-10-04T17:16:30.090Z,72.73
2017-10-04T17:18:58.578Z,72.65
2017-10-04T17:21:27.042Z,72.54
2017-10-04T17:23:55.550Z,72.53
2017-10-04T17:26:24.117Z,72.54
2017-10-04T17:28:52.556Z,72.67
2017-10-04T17:31:21.012Z,72.56
2017-10-04T17:33:49.445Z,72.29
2017-10-04T17:36:18.685Z,72.64
2017-10-04T17:38:47.112Z,72.61
2017-10-04T17:41:16.412Z,73.02
2017-10-04T17:43:45.664Z,73.17
2017-10-04T17:46:14.142Z,73.18
2017-10-04T17:48:42.601Z,73.13
2017-10-04T17:51:11.037Z,73.26
2017-10-04T17:53:39.593Z,73.28
2017-10-04T17:56:08.074Z,73.43
2017-10-04T17:58:36.637Z,73.37
2017-10-04T18:01:05.078Z,73.61
2017-10-04T18:03:33.614Z,73.46
2017-10-04T18:06:02.063Z,73.79
2017-10-04T18:08:31.389Z,73.74
2017-10-04T18:10:59.832Z,73.65
2017-10-04T18:13:29.168Z,73.61
2017-10-04T18:15:57.612Z,73.77
2017-10-04T18:18:26.836Z,74.21
2017-10-04T18:20:55.339Z,74.92
2017-10-04T18:23:23.805Z,75.31
2017-10-04T18:25:52.245Z,76.06
2017-10-04T18:28:20.702Z,77.17
2017-10-04T18:30:49.172Z,77.24
2017-10-04T18:33:17.641Z,78.39
2017-10-04T18:35:46.114Z,78.54
2017-10-04T18:38:14.544Z,79.89
2017-10-04T18:40:43.002Z,80.17
2017-10-04T18:43:11.446Z,81.13
2017-10-04T18:45:40.657Z,81.44
2017-10-04T18:48:09.097Z,81.38
2017-10-04T18:50:37.643Z,80.90
2017-10-04T18:53:06.085Z,80.85
2017-10-04T18:55:35.678Z,80.42
2017-10-04T18:58:04.894Z,79.72
2017-10-04T19:00:34.129Z,79.98
2017-10-04T19:03:02.570Z,80.04
2017-10-04T19:05:31.901Z,80.36
2017-10-04T19:08:00.328Z,81.10
2017-10-04T19:10:28.877Z,80.30
2017-10-04T19:12:57.326Z,80.46
2017-10-04T19:15:26.660Z,80.28
2017-10-04T19:17:55.142Z,79.58
2017-10-04T19:20:23.601Z,79.24
2017-10-04T19:22:52.104Z,79.42
2017-10-04T19:25:20.734Z,79.13
2017-10-04T19:27:49.264Z,79.14
2017-10-04T19:30:17.697Z,79.43
2017-10-04T19:32:46.172Z,79.94
2017-10-04T19:35:14.719Z,79.97
2017-10-04T19:37:43.192Z,80.06
2017-10-04T19:40:11.686Z,80.21
2017-10-04T19:42:40.165Z,80.25
2017-10-04T19:45:08.647Z,79.99
2017-10-04T19:47:37.221Z,80.28
2017-10-04T19:50:05.677Z,80.52
2017-10-04T19:52:34.900Z,80.59
2017-10-04T19:55:03.329Z,80.56
2017-10-04T19:57:31.790Z,81.29
2017-10-04T20:00:00.257Z,82.18
2017-10-04T20:02:28.713Z,82.57
2017-10-04T20:04:57.158Z,83.35
2017-10-04T20:07:25.606Z,83.87
2017-10-04T20:09:54.077Z,84.49
2017-10-04T20:12:22.526Z,83.80
2017-10-04T20:14:51.736Z,84.24
2017-10-04T20:17:20.249Z,83.75
2017-10-04T20:19:48.714Z,83.60
2017-10-04T20:22:17.144Z,83.36
2017-10-04T20:24:45.610Z,83.63
2017-10-04T20:27:14.071Z,83.34
2017-10-04T20:29:42.533Z,83.65
2017-10-04T20:32:10.974Z,84.21
2017-10-04T20:34:39.445Z,84.23
2017-10-04T20:37:07.872Z,83.99
2017-10-04T20:39:36.334Z,84.24
2017-10-04T20:42:05.533Z,84.31
2017-10-04T20:44:34.874Z,83.76
2017-10-04T20:47:03.319Z,83.24
2017-10-04T20:49:32.526Z,83.23
2017-10-04T20:52:01.758Z,82.64
2017-10-04T20:54:30.196Z,82.65
2017-10-04T20:56:59.412Z,82.01
2017-10-04T20:59:27.909Z,82.63
2017-10-04T21:01:56.361Z,82.21
2017-10-04T21:04:25.589Z,82.49
2017-10-04T21:06:54.079Z,82.91
2017-10-04T21:09:22.593Z,82.36
2017-10-04T21:11:51.055Z,82.95
2017-10-04T21:14:19.501Z,84.10
2017-10-04T21:16:47.960Z,84.16
2017-10-04T21:19:17.199Z,84.68
2017-10-04T21:21:45.694Z,85.71
2017-10-04T21:24:14.125Z,85.72
2017-10-04T21:26:43.464Z,84.97
2017-10-04T21:29:11.902Z,85.50
2017-10-04T21:31:40.435Z,86.61
2017-10-04T21:34:08.910Z,87.01
2017-10-04T21:36:37.351Z,86.87
2017-10-04T21:39:05.872Z,87.23
2017-10-04T21:41:34.460Z,87.84
2017-10-04T21:44:02.930Z,87.96
2017-10-04T21:46:31.361Z,89.19
2017-10-04T21:48:59.904Z,90.35
2017-10-04T21:51:28.335Z,89.42
2017-10-04T21:53:56.796Z,89.49
2017-10-04T21:56:25.224Z,89.13
2017-10-04T21:58:54.561Z,89.53
2017-10-04T22:01:23.043Z,89.91
2017-10-04T22:03:51.500Z,89.70
2017-10-04T22:06:19.932Z,90.06
2017-10-04T22:08:48.399Z,90.68
2017-10-04T22:11:16.833Z,89.88
2017-10-04T22:13:46.028Z,90.34
2017-10-04T22:16:15.248Z,90.79
2017-10-04T22:18:43.751Z,90.74
2017-10-04T22:21:12.214Z,91.02
2017-10-04T22:23:40.704Z,90.79
2017-10-04T22:26:09.168Z,91.59
2017-10-04T22:28:37.610Z,90.39
2017-10-04T22:31:06.064Z,91.51
2017-10-04T22:33:34.539Z,91.00
2017-10-04T22:36:03.004Z,90.40
2017-10-04T22:38:31.433Z,89.77
2017-10-04T22:40:59.893Z,89.88
2017-10-04T22:43:28.329Z,89.68
2017-10-04T22:45:57.548Z,89.81
2017-10-04T22:48:26.033Z,88.72
2017-10-04T22:50:54.481Z,88.93
2017-10-04T22:53:23.695Z,89.50
2017-10-04T22:55:52.142Z,90.38
2017-10-04T22:58:20.606Z,89.41
2017-10-04T23:00:49.035Z,89.22
2017-10-04T23:03:18.253Z,88.67
2017-10-04T23:05:46.737Z,88.33
2017-10-04T23:08:15.180Z,87.57
2017-10-04T23:10:44.434Z,86.44
2017-10-04T23:13:12.905Z,85.29
2017-10-04T23:15:41.381Z,86.15
2017-10-04T23:18:09.827Z,85.92
2017-10-04T23:20:39.028Z,85.03
2017-10-04T23:23:08.249Z,85.57
2017-10-04T23:25:36.678Z,85.33
2017-10-04T23:28:05.132Z,86.02
2017-10-04T23:30:33.617Z,86.72
2017-10-04T23:33:02.072Z,85.85
2017-10-04T23:35:30.577Z,87.24
2017-10-04T23:37:59.036Z,87.05
2017-10-04T23:40:27.546Z,87.52
2017-10-04T23:42:56.008Z,87.69
2017-10-04T23:45:24.450Z,88.29
2017-10-04T23:47:52.879Z,88.25
2017-10-04T23:50:21.371Z,88.95
2017-10-04T23:52:49.801Z,88.99
2017-10-04T23:55:19.035Z,89.53
2017-10-04T23:57:47.480Z,90.03
